Time;durP1;ratioP1;P1;durP2;ratioP2;P2;SDS_P1;SDS_P2;PMS_P1;PMS_P2;Temp;Humidity;BMP_temperature;BMP_pressure;BME280_temperature;BME280_humidity;BME280_pressure;Samples;Min_cycle;Max_cycle;Signal;HPM_P1;HPM_P2
2022/03/12 00:00:37;;;;;;;44.30;26.00;;;;;;;16.88;22.57;102950.75;4967399;28;20027;-76
2022/03/12 00:03:04;;;;;;;65.57;41.42;;;;;;;16.77;22.65;102964.28;4963301;28;20092;-76
2022/03/12 00:05:30;;;;;;;91.88;52.50;;;;;;;16.73;22.66;102958.53;4961781;28;20092;-76
2022/03/12 00:07:58;;;;;;;147.63;83.85;;;;;;;16.80;22.52;102953.00;4971597;28;20547;-76
2022/03/12 00:10:24;;;;;;;48.40;26.48;;;;;;;16.75;22.53;102955.59;4966879;28;20476;-75
2022/03/12 00:12:50;;;;;;;22.02;11.55;;;;;;;16.50;21.85;102955.75;4963124;28;20019;-76
2022/03/12 00:15:15;;;;;;;21.50;10.35;;;;;;;16.22;22.23;102954.56;4961820;28;20033;-76
2022/03/12 00:17:46;;;;;;;18.42;9.30;;;;;;;16.08;22.29;102952.28;4965823;28;20493;-76
2022/03/12 00:20:19;;;;;;;18.65;9.25;;;;;;;15.98;22.54;102950.16;4963731;28;20036;-76
2022/03/12 00:22:51;;;;;;;17.38;8.35;;;;;;;15.95;22.77;102947.91;4964203;28;20124;-76
2022/03/12 00:25:21;;;;;;;15.55;8.68;;;;;;;16.00;22.91;102948.88;4966902;28;20073;-75
2022/03/12 00:27:47;;;;;;;20.92;10.13;;;;;;;16.05;22.81;102952.75;4966693;28;20492;-76
2022/03/12 00:30:21;;;;;;;17.63;9.35;;;;;;;16.03;22.68;102947.59;4962262;28;20059;-75
2022/03/12 00:32:48;;;;;;;19.90;9.45;;;;;;;15.96;22.82;102942.25;4966362;28;20084;-76
2022/03/12 00:35:15;;;;;;;140.23;69.55;;;;;;;15.85;22.86;102939.53;4964059;28;20027;-76
2022/03/12 00:37:41;;;;;;;151.45;73.53;;;;;;;15.76;22.87;102938.19;4969400;28;20038;-76
2022/03/12 00:40:08;;;;;;;156.00;79.22;;;;;;;15.63;22.78;102936.53;4966905;28;20089;-77
2022/03/12 00:42:34;;;;;;;63.72;32.22;;;;;;;15.50;22.54;102939.34;4965516;28;20027;-77
2022/03/12 00:45:00;;;;;;;33.88;15.85;;;;;;;15.11;22.11;102938.78;4967749;28;20031;-76
2022/03/12 00:47:30;;;;;;;28.23;12.70;;;;;;;14.54;21.92;102927.31;4966069;28;20517;-75
2022/03/12 00:49:56;;;;;;;23.10;11.05;;;;;;;13.85;22.02;102929.06;4962868;28;20026;-76
2022/03/12 00:52:22;;;;;;;22.13;10.82;;;;;;;13.10;22.42;102929.78;4967962;28;20025;-76
2022/03/12 00:54:47;;;;;;;18.75;10.05;;;;;;;12.43;22.46;102925.56;4967574;28;20555;-75
2022/03/12 00:57:13;;;;;;;22.05;10.15;;;;;;;11.86;22.58;102929.66;4971752;28;20038;-75
2022/03/12 00:59:42;;;;;;;20.73;9.68;;;;;;;11.28;23.07;102924.63;4966436;28;20034;-76
2022/03/12 01:02:14;;;;;;;18.92;9.43;;;;;;;10.68;23.48;102919.97;4959665;28;20023;-76
2022/03/12 01:04:40;;;;;;;24.80;10.75;;;;;;;10.20;23.68;102917.06;4967992;28;20027;-76
2022/03/12 01:07:06;;;;;;;22.63;10.70;;;;;;;9.77;23.91;102919.75;4969581;28;20432;-75
2022/03/12 01:09:31;;;;;;;24.98;10.50;;;;;;;9.25;24.61;102918.13;4967819;28;20078;-76
2022/03/12 01:11:57;;;;;;;27.80;10.18;;;;;;;8.87;24.37;102930.75;4968890;28;20023;-74
2022/03/12 01:14:23;;;;;;;21.35;9.80;;;;;;;8.58;25.36;102931.53;4967671;28;20499;-75
2022/03/12 01:16:49;;;;;;;23.27;9.68;;;;;;;8.31;25.47;102926.75;4967255;28;20101;-75
2022/03/12 01:19:15;;;;;;;20.13;9.32;;;;;;;8.10;25.38;102925.59;4971518;28;20800;-76
2022/03/12 01:21:41;;;;;;;20.10;9.30;;;;;;;7.84;25.57;102920.56;4968997;28;20029;-75
2022/03/12 01:24:07;;;;;;;18.92;8.98;;;;;;;7.63;25.84;102919.56;4963681;28;20573;-75
2022/03/12 01:26:39;;;;;;;26.00;9.32;;;;;;;7.44;26.24;102918.97;4961606;28;20018;-75
2022/03/12 01:29:06;;;;;;;22.42;9.13;;;;;;;7.28;26.36;102924.38;4959144;28;20026;-76
2022/03/12 01:31:32;;;;;;;20.70;8.60;;;;;;;7.12;26.44;102919.13;4964801;28;20018;-75
2022/03/12 01:33:57;;;;;;;16.67;8.38;;;;;;;7.00;26.46;102915.16;4972037;28;20049;-75
2022/03/12 01:36:23;;;;;;;20.65;9.05;;;;;;;6.78;26.60;102903.38;4968049;28;20058;-74
2022/03/12 01:38:54;;;;;;;23.90;9.27;;;;;;;6.51;26.90;102915.28;4968911;28;20058;-76
2022/03/12 01:41:30;;;;;;;17.38;8.27;;;;;;;6.33;27.06;102904.78;4959552;28;20031;-75
2022/03/12 01:43:59;;;;;;;23.00;9.52;;;;;;;6.13;27.05;102898.97;4967076;28;20161;-76
2022/03/12 01:46:34;;;;;;;21.90;8.70;;;;;;;5.85;27.66;102894.91;4962250;28;20061;-76
2022/03/12 01:49:04;;;;;;;19.38;8.90;;;;;;;5.72;27.79;102888.25;4971715;28;20041;-77
2022/03/12 01:51:30;;;;;;;18.50;9.18;;;;;;;5.57;27.92;102897.88;4969227;28;20480;-77
2022/03/12 01:53:56;;;;;;;16.45;8.05;;;;;;;5.41;27.94;102898.66;4964964;28;20030;-76
2022/03/12 01:56:27;;;;;;;18.45;8.30;;;;;;;5.21;28.33;102896.44;4960198;28;20038;-76
2022/03/12 01:58:53;;;;;;;19.75;9.25;;;;;;;5.16;28.43;102892.41;4971114;28;20169;-77
2022/03/12 02:01:20;;;;;;;18.08;8.63;;;;;;;5.03;28.51;102891.19;4968491;28;20027;-76
2022/03/12 02:03:46;;;;;;;20.08;8.50;;;;;;;4.89;28.85;102895.28;4969923;28;20077;-76
2022/03/12 02:06:21;;;;;;;16.38;7.57;;;;;;;4.77;29.11;102894.69;4967731;28;20136;-76
2022/03/12 02:08:49;;;;;;;19.67;8.38;;;;;;;4.75;29.08;102895.84;4977427;28;20110;-77
2022/03/12 02:11:25;;;;;;;20.83;7.57;;;;;;;4.75;29.18;102898.50;4969652;28;20670;-76
2022/03/12 02:14:16;;;;;;;19.55;8.55;;;;;;;4.67;29.35;102891.34;4966801;28;20034;-76
2022/03/12 02:17:03;;;;;;;15.93;8.02;;;;;;;4.42;29.57;102886.84;4965691;28;20038;-76
2022/03/12 02:19:31;;;;;;;21.83;8.68;;;;;;;4.29;29.58;102883.75;4970709;28;20027;-76
2022/03/12 02:21:59;;;;;;;15.05;7.80;;;;;;;4.15;29.39;102887.81;4974861;28;20030;-76
2022/03/12 02:24:31;;;;;;;25.50;9.80;;;;;;;4.03;29.98;102876.59;4969266;28;20026;-76
2022/03/12 02:26:59;;;;;;;18.75;8.70;;;;;;;3.92;29.61;102884.78;4977041;28;20039;-76
2022/03/12 02:29:26;;;;;;;17.27;8.05;;;;;;;3.83;30.12;102878.56;4965702;28;20031;-76
2022/03/12 02:31:57;;;;;;;19.23;8.85;;;;;;;3.75;30.57;102873.19;4973433;28;20023;-76
2022/03/12 02:34:28;;;;;;;18.40;8.73;;;;;;;3.73;30.75;102875.16;4967854;28;20038;-75
2022/03/12 02:36:56;;;;;;;20.20;9.07;;;;;;;3.66;30.41;102868.78;4971843;28;20042;-76
2022/03/12 02:39:24;;;;;;;17.38;8.13;;;;;;;3.60;30.53;102864.09;4969610;28;20060;-75
2022/03/12 02:41:50;;;;;;;16.08;7.85;;;;;;;3.58;31.00;102863.38;4967708;28;20038;-75
2022/03/12 02:44:21;;;;;;;17.92;8.75;;;;;;;3.52;30.77;102862.19;4966555;28;20489;-75
2022/03/12 02:47:16;;;;;;;21.65;9.13;;;;;;;3.40;31.68;102865.19;4967008;28;20131;-76
2022/03/12 02:49:46;;;;;;;23.27;7.80;;;;;;;3.35;31.27;102873.59;4964780;28;20192;-76
2022/03/12 02:52:13;;;;;;;19.88;8.43;;;;;;;3.30;31.40;102866.09;4969279;28;20037;-75
2022/03/12 02:54:40;;;;;;;22.13;8.38;;;;;;;3.27;31.35;102862.91;4969901;28;20117;-76
2022/03/12 02:57:06;;;;;;;17.58;8.63;;;;;;;3.21;31.17;102868.78;4965895;28;20524;-75
2022/03/12 02:59:33;;;;;;;17.63;8.35;;;;;;;3.12;31.40;102865.22;4968445;28;20050;-76
2022/03/12 03:02:00;;;;;;;20.02;8.75;;;;;;;3.12;31.69;102867.88;4959801;28;20026;-76
2022/03/12 03:04:26;;;;;;;21.63;8.13;;;;;;;3.11;31.85;102866.19;4973988;28;20022;-75
2022/03/12 03:06:51;;;;;;;21.70;7.93;;;;;;;3.03;31.87;102866.09;4969361;28;20420;-76
2022/03/12 03:09:17;;;;;;;18.17;8.10;;;;;;;3.00;31.76;102866.38;4966063;28;20034;-75
2022/03/12 03:11:44;;;;;;;20.42;8.05;;;;;;;2.97;31.79;102869.31;4966782;28;20031;-78
2022/03/12 03:14:11;;;;;;;18.88;8.48;;;;;;;2.98;32.04;102865.69;4968164;28;20030;-79
2022/03/12 03:16:37;;;;;;;25.25;8.50;;;;;;;2.94;31.96;102874.91;4971627;28;20058;-80
2022/03/12 03:19:03;;;;;;;22.17;7.78;;;;;;;2.88;32.22;102872.88;4972645;28;20455;-80
2022/03/12 03:21:29;;;;;;;21.20;8.27;;;;;;;2.82;32.26;102878.72;4971019;28;20119;-80
2022/03/12 03:23:55;;;;;;;21.20;8.55;;;;;;;2.79;32.38;102879.00;4973038;28;20022;-79
2022/03/12 03:26:39;;;;;;;19.58;8.52;;;;;;;2.69;32.85;102871.97;4966728;28;20114;-79
2022/03/12 03:29:08;;;;;;;20.63;8.07;;;;;;;2.74;32.51;102860.94;4968847;28;20508;-80
2022/03/12 03:31:35;;;;;;;21.02;8.82;;;;;;;2.72;32.61;102871.66;4977210;28;20023;-80
2022/03/12 03:34:01;;;;;;;19.60;8.70;;;;;;;2.70;32.34;102870.97;4966927;28;20034;-77
2022/03/12 03:36:27;;;;;;;19.48;8.07;;;;;;;2.70;32.53;102876.28;4970905;28;20497;-78
2022/03/12 03:38:52;;;;;;;20.70;8.63;;;;;;;2.69;32.75;102868.44;4972127;28;20956;-78
2022/03/12 03:41:18;;;;;;;26.27;9.88;;;;;;;2.58;32.75;102869.47;4968647;28;20085;-78
2022/03/12 03:43:47;;;;;;;18.88;8.95;;;;;;;2.49;32.93;102874.78;4968175;28;20026;-77
2022/03/12 03:46:17;;;;;;;23.25;8.38;;;;;;;2.46;32.83;102872.41;4968483;28;20034;-78
2022/03/12 03:48:45;;;;;;;19.02;8.13;;;;;;;2.48;32.77;102881.03;4981098;28;20089;-79
2022/03/12 03:51:12;;;;;;;15.70;8.07;;;;;;;2.48;32.95;102868.66;4971222;28;20027;-78
2022/03/12 03:53:37;;;;;;;19.95;8.80;;;;;;;2.51;33.08;102878.09;4971112;28;20030;-78
2022/03/12 03:56:04;;;;;;;20.20;8.70;;;;;;;2.52;33.32;102872.69;4971933;28;20496;-77
2022/03/12 03:58:32;;;;;;;18.60;8.40;;;;;;;2.55;32.94;102877.69;4979944;28;20058;-80
2022/03/12 04:01:03;;;;;;;22.27;8.38;;;;;;;2.50;33.31;102877.28;4968382;28;20030;-78
2022/03/12 04:03:32;;;;;;;19.05;8.07;;;;;;;2.47;33.48;102874.09;4969703;28;20089;-77
2022/03/12 04:06:02;;;;;;;18.02;7.43;;;;;;;2.40;33.05;102874.66;4972099;28;20093;-77
2022/03/12 04:08:28;;;;;;;20.73;8.50;;;;;;;2.33;33.08;102873.53;4978430;28;20026;-77
2022/03/12 04:10:54;;;;;;;21.38;9.65;;;;;;;2.18;33.61;102874.16;4966960;28;20023;-77
2022/03/12 04:13:21;;;;;;;27.98;10.18;;;;;;;2.12;33.48;102872.88;4971786;28;20086;-80
2022/03/12 04:15:49;;;;;;;26.83;8.95;;;;;;;2.09;33.64;102874.00;4967432;28;20494;-79
2022/03/12 04:18:15;;;;;;;23.35;9.18;;;;;;;2.08;33.45;102877.63;4968312;28;20493;-78
2022/03/12 04:20:46;;;;;;;23.75;8.88;;;;;;;2.07;33.65;102878.59;4972779;28;20027;-78
2022/03/12 04:23:12;;;;;;;19.85;8.80;;;;;;;1.99;33.89;102883.75;4974903;28;20073;-78
2022/03/12 04:25:38;;;;;;;18.48;7.68;;;;;;;1.95;34.36;102885.00;4971035;28;20481;-78
2022/03/12 04:28:06;;;;;;;20.42;8.23;;;;;;;1.92;34.06;102882.63;4974452;28;20064;-78
2022/03/12 04:30:32;;;;;;;19.25;8.85;;;;;;;1.88;34.39;102883.88;4980442;28;20606;-78
2022/03/12 04:32:58;;;;;;;20.35;7.97;;;;;;;1.81;34.05;102874.84;4972238;28;20118;-78
2022/03/12 04:35:24;;;;;;;16.42;7.85;;;;;;;1.72;34.34;102870.38;4976797;28;20507;-80
2022/03/12 04:37:52;;;;;;;16.92;8.23;;;;;;;1.62;34.12;102877.47;4974826;28;20027;-81
2022/03/12 04:40:26;;;;;;;18.10;8.70;;;;;;;1.49;34.56;102867.16;4984195;28;20026;-78
2022/03/12 04:42:52;;;;;;;20.08;8.02;;;;;;;1.44;34.30;102870.22;4971468;28;20038;-78
2022/03/12 04:45:20;;;;;;;14.65;8.05;;;;;;;1.36;34.82;102864.75;4971831;28;20027;-78
2022/03/12 04:47:48;;;;;;;16.75;8.05;;;;;;;1.31;34.86;102866.16;4972638;28;20033;-78
2022/03/12 04:50:16;;;;;;;19.55;8.45;;;;;;;1.22;35.05;102873.06;4975144;28;20029;-78
2022/03/12 04:52:47;;;;;;;16.20;7.97;;;;;;;1.14;35.11;102876.38;4971451;28;20962;-78
2022/03/12 04:55:17;;;;;;;17.23;8.00;;;;;;;1.14;35.11;102870.28;4971766;28;20134;-78
2022/03/12 04:57:43;;;;;;;16.92;8.73;;;;;;;1.12;35.16;102867.78;4979586;28;20121;-78
2022/03/12 05:00:35;;;;;;;19.05;9.40;;;;;;;1.02;35.74;102873.97;4973515;28;20026;-78
2022/03/12 05:03:00;;;;;;;23.30;9.65;;;;;;;1.10;35.37;102871.50;4966522;28;20049;-78
2022/03/12 05:05:26;;;;;;;20.85;9.68;;;;;;;1.10;35.40;102875.00;4959910;28;20107;-78
2022/03/12 05:07:51;;;;;;;17.92;9.15;;;;;;;1.15;36.10;102877.22;4970539;28;20034;-78
2022/03/12 05:10:18;;;;;;;19.95;8.98;;;;;;;1.18;35.62;102884.88;4973641;28;20049;-79
2022/03/12 05:12:47;;;;;;;20.70;9.05;;;;;;;1.18;35.92;102874.31;4970323;28;20027;-79
2022/03/12 05:15:15;;;;;;;17.55;8.73;;;;;;;1.19;36.04;102882.09;4968978;28;20105;-78
2022/03/12 05:17:48;;;;;;;18.65;9.15;;;;;;;1.17;35.88;102878.75;4966850;28;20069;-78
2022/03/12 05:20:36;;;;;;;21.27;9.52;;;;;;;1.12;36.52;102870.41;4972924;28;20030;-78
2022/03/12 05:23:02;;;;;;;17.58;9.23;;;;;;;1.19;36.53;102876.81;4982950;28;20034;-78
2022/03/12 05:25:31;;;;;;;20.50;8.77;;;;;;;1.17;36.38;102872.63;4975146;28;20487;-78
2022/03/12 05:27:58;;;;;;;24.58;10.23;;;;;;;1.09;36.56;102875.13;4969065;28;20105;-79
2022/03/12 05:30:23;;;;;;;24.70;9.82;;;;;;;1.09;36.31;102869.84;4981274;28;20417;-80
2022/03/12 05:32:50;;;;;;;21.42;9.57;;;;;;;1.08;36.52;102871.66;4980170;28;20070;-81
2022/03/12 05:35:19;;;;;;;26.60;10.15;;;;;;;1.08;36.64;102876.94;4976397;28;20030;-79
2022/03/12 05:37:48;;;;;;;26.67;9.57;;;;;;;1.07;36.42;102877.88;4983185;28;20037;-79
2022/03/12 05:40:18;;;;;;;22.88;10.15;;;;;;;1.05;36.59;102884.25;4967740;28;20374;-77
2022/03/12 05:42:45;;;;;;;28.42;10.35;;;;;;;1.05;36.79;102884.25;4975642;28;21032;-77
2022/03/12 05:45:11;;;;;;;22.92;9.10;;;;;;;1.04;36.67;102879.94;4975119;28;20042;-84
2022/03/12 05:47:39;;;;;;;17.58;8.85;;;;;;;1.05;36.53;102889.53;4980446;28;20037;-77
2022/03/12 05:50:09;;;;;;;23.67;10.10;;;;;;;1.04;36.67;102888.69;4975418;28;20030;-77
2022/03/12 05:52:41;;;;;;;20.40;9.10;;;;;;;0.97;37.09;102890.22;4980621;28;20034;-78
2022/03/12 05:55:08;;;;;;;22.48;10.20;;;;;;;0.96;36.82;102888.53;4970934;28;20033;-76
2022/03/12 05:57:37;;;;;;;21.23;9.93;;;;;;;0.94;36.25;102894.94;4969524;28;20039;-75
2022/03/12 06:00:04;;;;;;;20.73;9.68;;;;;;;0.90;37.11;102884.66;4970106;28;20026;-76
2022/03/12 06:02:30;;;;;;;19.50;9.45;;;;;;;0.91;36.79;102882.84;4970210;28;20030;-75
2022/03/12 06:04:59;;;;;;;19.73;8.82;;;;;;;0.92;36.95;102883.66;4967266;28;20034;-77
2022/03/12 06:07:27;;;;;;;21.02;9.00;;;;;;;0.95;37.16;102884.25;4970335;28;20034;-76
2022/03/12 06:09:52;;;;;;;20.60;8.60;;;;;;;0.98;36.95;102893.69;4971069;28;20106;-77
2022/03/12 06:12:19;;;;;;;21.35;9.02;;;;;;;0.99;36.69;102887.44;4976440;28;20114;-77
2022/03/12 06:14:51;;;;;;;21.73;9.95;;;;;;;1.00;36.83;102895.22;4970197;28;20038;-77
2022/03/12 06:17:17;;;;;;;19.83;9.15;;;;;;;1.07;36.79;102896.34;4971691;28;20037;-77
2022/03/12 06:19:42;;;;;;;20.20;9.10;;;;;;;1.13;36.52;102892.38;4965251;28;20157;-77
2022/03/12 06:22:08;;;;;;;21.48;9.73;;;;;;;1.15;36.97;102895.72;4971431;28;20105;-77
2022/03/12 06:24:33;;;;;;;21.50;9.27;;;;;;;1.18;36.51;102901.53;4969485;28;20046;-76
2022/03/12 06:26:59;;;;;;;22.63;10.02;;;;;;;1.24;36.46;102901.97;4967885;28;20192;-77
2022/03/12 06:29:24;;;;;;;21.00;9.18;;;;;;;1.27;36.46;102902.56;4968430;28;20077;-75
2022/03/12 06:31:51;;;;;;;20.95;9.75;;;;;;;1.31;36.46;102911.88;4967379;28;20026;-79
2022/03/12 06:34:17;;;;;;;25.45;9.02;;;;;;;1.35;36.64;102902.72;4979509;28;20068;-77
2022/03/12 06:36:44;;;;;;;23.38;9.70;;;;;;;1.39;36.26;102904.09;4975405;28;20038;-78
2022/03/12 06:39:10;;;;;;;17.20;8.60;;;;;;;1.45;36.31;102905.41;4978800;28;20046;-77
2022/03/12 06:41:38;;;;;;;23.13;9.43;;;;;;;1.51;36.50;102904.84;4968482;28;20027;-79
2022/03/12 06:44:05;;;;;;;19.27;9.15;;;;;;;1.59;36.45;102909.44;4992507;23;20155;-74
2022/03/12 06:46:31;;;;;;;21.58;9.55;;;;;;;1.66;36.13;102913.22;4967608;28;20034;-74
2022/03/12 06:48:57;;;;;;;22.13;9.35;;;;;;;1.72;36.07;102910.03;4969591;28;20540;-74
2022/03/12 06:51:24;;;;;;;20.23;10.75;;;;;;;1.81;36.36;102915.34;4970374;28;20025;-74
2022/03/12 06:53:51;;;;;;;20.88;9.27;;;;;;;1.93;36.27;102917.84;4962443;28;20649;-74
2022/03/12 06:56:16;;;;;;;19.38;7.88;;;;;;;2.00;36.46;102925.09;4983231;28;20033;-74
2022/03/12 06:58:42;;;;;;;20.63;9.15;;;;;;;2.11;36.04;102929.38;4979999;28;21036;-76
2022/03/12 07:01:08;;;;;;;18.42;8.88;;;;;;;2.19;36.38;102937.47;4977759;28;20033;-76
2022/03/12 07:03:33;;;;;;;23.10;9.60;;;;;;;2.27;36.28;102937.59;4972691;28;20030;-76
2022/03/12 07:05:59;;;;;;;19.27;8.15;;;;;;;2.36;36.00;102933.31;4971504;28;20041;-77
2022/03/12 07:08:24;;;;;;;21.42;9.77;;;;;;;2.45;35.91;102934.25;4973226;28;20101;-77
2022/03/12 07:10:50;;;;;;;16.77;8.38;;;;;;;2.53;35.94;102931.75;4972161;28;20022;-76
2022/03/12 07:13:16;;;;;;;19.33;8.30;;;;;;;2.63;35.95;102924.59;4970679;28;20031;-76
2022/03/12 07:15:42;;;;;;;21.48;8.50;;;;;;;2.74;35.90;102935.03;4979167;28;20034;-77
2022/03/12 07:18:08;;;;;;;21.33;8.65;;;;;;;2.86;35.60;102928.59;4972544;28;20109;-77
2022/03/12 07:20:34;;;;;;;23.17;9.10;;;;;;;2.95;35.53;102934.84;4972596;28;20521;-77
2022/03/12 07:23:00;;;;;;;19.48;9.30;;;;;;;3.03;35.29;102938.41;4975584;28;20085;-77
2022/03/12 07:25:27;;;;;;;19.92;9.38;;;;;;;3.14;35.59;102940.06;4976907;28;20033;-78
2022/03/12 07:27:54;;;;;;;19.77;8.40;;;;;;;3.21;35.52;102927.06;4978297;28;20033;-77
2022/03/12 07:30:21;;;;;;;22.33;10.15;;;;;;;3.29;35.53;102935.13;4965513;28;20544;-78
2022/03/12 07:32:47;;;;;;;21.75;8.32;;;;;;;3.39;35.15;102940.38;4965513;28;20054;-77
2022/03/12 07:35:15;;;;;;;21.70;8.80;;;;;;;3.43;35.33;102936.47;4968727;28;20480;-77
2022/03/12 07:37:43;;;;;;;20.10;8.93;;;;;;;3.53;35.23;102934.59;4971484;28;20031;-77
2022/03/12 07:40:10;;;;;;;23.88;9.05;;;;;;;3.60;35.08;102938.31;4984445;28;20034;-77
2022/03/12 07:42:36;;;;;;;18.27;9.07;;;;;;;3.68;35.05;102937.56;4969575;28;20034;-77
2022/03/12 07:45:03;;;;;;;15.43;8.93;;;;;;;3.77;34.67;102929.56;4964668;28;20488;-77
2022/03/12 07:47:29;;;;;;;19.20;8.60;;;;;;;3.90;34.76;102937.13;4971542;28;20082;-77
2022/03/12 07:49:55;;;;;;;21.95;8.57;;;;;;;4.00;34.72;102939.72;4979866;28;20654;-78
2022/03/12 07:52:20;;;;;;;18.52;8.18;;;;;;;4.09;34.43;102929.03;4970670;28;20062;-78
2022/03/12 07:54:46;;;;;;;18.90;8.57;;;;;;;4.15;34.30;102933.75;4974501;28;20602;-78
2022/03/12 07:57:13;;;;;;;23.98;9.75;;;;;;;4.23;34.08;102940.94;4972568;28;20023;-79
2022/03/12 07:59:38;;;;;;;22.58;9.55;;;;;;;4.32;34.13;102929.41;4964940;28;20563;-78
2022/03/12 08:02:04;;;;;;;22.83;9.32;;;;;;;4.38;33.92;102928.78;4977781;28;20142;-78
2022/03/12 08:04:33;;;;;;;22.48;8.85;;;;;;;4.48;33.88;102929.50;4972096;28;20039;-78
2022/03/12 08:07:02;;;;;;;20.63;9.10;;;;;;;4.58;33.55;102933.91;4971016;28;20030;-78
2022/03/12 08:09:32;;;;;;;22.33;10.15;;;;;;;4.65;33.59;102941.09;4980430;28;20746;-78
2022/03/12 08:11:59;;;;;;;21.30;9.13;;;;;;;4.74;33.63;102924.25;4970701;28;20057;-78
2022/03/12 08:14:25;;;;;;;19.67;9.57;;;;;;;4.82;33.41;102923.44;4968905;28;20054;-79
2022/03/12 08:16:52;;;;;;;25.55;10.98;;;;;;;4.88;33.41;102924.66;4968169;28;20038;-79
2022/03/12 08:19:19;;;;;;;24.30;11.50;;;;;;;4.93;33.12;102917.03;4975834;28;20408;-78
2022/03/12 08:21:46;;;;;;;23.02;10.35;;;;;;;4.97;32.67;102921.88;4964129;28;21650;-78
2022/03/12 08:24:15;;;;;;;21.58;10.43;;;;;;;5.04;32.58;102914.94;4964803;28;20038;-78
2022/03/12 08:26:42;;;;;;;25.95;10.75;;;;;;;5.10;32.51;102909.00;4969082;28;20057;-78
2022/03/12 08:29:12;;;;;;;25.20;10.38;;;;;;;5.20;32.07;102905.38;4972654;28;20038;-78
2022/03/12 08:31:39;;;;;;;22.52;9.98;;;;;;;5.30;32.25;102904.25;4969715;28;20022;-78
2022/03/12 08:34:05;;;;;;;17.08;9.50;;;;;;;5.38;31.85;102900.78;4968973;28;20022;-77
2022/03/12 08:36:31;;;;;;;19.65;9.18;;;;;;;5.45;31.93;102912.47;4971155;28;20023;-78
2022/03/12 08:38:57;;;;;;;23.05;9.75;;;;;;;5.50;31.56;102906.66;4969166;28;20022;-78
2022/03/12 08:41:23;;;;;;;18.95;10.18;;;;;;;5.59;31.66;102906.53;4970277;28;20380;-78
2022/03/12 08:43:49;;;;;;;20.80;9.75;;;;;;;5.67;31.44;102895.88;4971207;28;20046;-79
2022/03/12 08:46:15;;;;;;;21.15;9.77;;;;;;;5.73;31.31;102897.88;4974199;28;20577;-78
2022/03/12 08:48:41;;;;;;;16.98;8.60;;;;;;;5.86;31.31;102901.91;4980041;28;20033;-78
2022/03/12 08:51:07;;;;;;;20.77;9.13;;;;;;;5.90;31.00;102901.44;4971137;28;20384;-78
2022/03/12 08:53:34;;;;;;;21.38;9.45;;;;;;;5.97;30.90;102899.78;4974416;28;20030;-78
2022/03/12 08:56:01;;;;;;;20.20;8.88;;;;;;;6.02;30.99;102900.13;4981804;28;20072;-78
2022/03/12 08:58:29;;;;;;;24.85;9.95;;;;;;;6.16;30.77;102901.31;4972859;28;20240;-78
2022/03/12 09:00:59;;;;;;;20.67;8.88;;;;;;;6.31;30.95;102901.47;4973907;28;20412;-78
2022/03/12 09:03:25;;;;;;;24.40;9.20;;;;;;;6.45;30.82;102897.28;4970159;28;20045;-78
2022/03/12 09:05:51;;;;;;;20.70;8.65;;;;;;;6.56;30.66;102895.09;4974942;28;20054;-78
2022/03/12 09:08:17;;;;;;;20.67;8.90;;;;;;;6.63;30.53;102890.75;4979027;28;20484;-78
2022/03/12 09:10:44;;;;;;;18.60;8.43;;;;;;;6.72;30.57;102880.94;4967463;28;20066;-79
2022/03/12 09:13:13;;;;;;;17.55;8.75;;;;;;;6.84;30.47;102884.91;4969683;28;20027;-78
2022/03/12 09:15:40;;;;;;;22.38;9.00;;;;;;;6.95;30.14;102878.34;4967582;28;20065;-78
2022/03/12 09:18:07;;;;;;;25.08;9.45;;;;;;;7.05;30.14;102875.50;4975278;28;20065;-78
2022/03/12 09:20:42;;;;;;;18.70;8.20;;;;;;;7.13;29.88;102870.13;4966058;28;20063;-78
2022/03/12 09:23:07;;;;;;;16.88;8.90;;;;;;;7.22;29.95;102866.44;4973706;28;20046;-78
2022/03/12 09:25:33;;;;;;;19.27;8.43;;;;;;;7.33;29.77;102868.69;4969166;28;20026;-78
2022/03/12 09:27:59;;;;;;;19.80;8.32;;;;;;;7.44;29.65;102867.47;4966045;28;20037;-78
2022/03/12 09:30:25;;;;;;;18.70;8.70;;;;;;;7.49;29.69;102873.94;4968071;28;20058;-78
2022/03/12 09:32:50;;;;;;;15.95;8.68;;;;;;;7.56;29.60;102864.25;4975276;28;20037;-78
2022/03/12 09:35:16;;;;;;;21.05;8.98;;;;;;;7.65;29.30;102858.84;4971784;28;20037;-78
2022/03/12 09:37:42;;;;;;;20.33;8.55;;;;;;;7.69;29.25;102860.13;4969965;28;20424;-78
2022/03/12 09:40:09;;;;;;;19.15;8.25;;;;;;;7.78;29.00;102853.75;4976134;28;20033;-78
2022/03/12 09:42:34;;;;;;;21.30;9.27;;;;;;;7.88;28.91;102862.34;4970863;28;20030;-79
2022/03/12 09:45:02;;;;;;;19.73;8.10;;;;;;;8.02;28.78;102858.06;4964345;28;20035;-78
2022/03/12 09:47:28;;;;;;;21.95;8.68;;;;;;;8.11;28.92;102851.66;4966645;28;20049;-78
2022/03/12 09:49:53;;;;;;;17.70;8.90;;;;;;;8.21;28.94;102851.38;4969257;28;20511;-78
2022/03/12 09:52:19;;;;;;;15.95;8.75;;;;;;;8.28;28.84;102844.31;4977105;28;20494;-78
2022/03/12 09:54:47;;;;;;;15.35;8.25;;;;;;;8.33;28.25;102844.59;4964853;28;20086;-78
2022/03/12 09:57:12;;;;;;;16.95;8.25;;;;;;;8.28;27.98;102841.66;4975302;28;20037;-78
2022/03/12 09:59:38;;;;;;;16.05;8.98;;;;;;;8.16;27.62;102844.75;4970434;28;20031;-78
2022/03/12 10:02:04;;;;;;;16.40;8.52;;;;;;;8.23;28.02;102838.69;4970878;28;20535;-79
2022/03/12 10:04:30;;;;;;;16.02;7.97;;;;;;;8.37;27.64;102833.41;4969014;28;20148;-78
2022/03/12 10:06:56;;;;;;;15.38;8.48;;;;;;;8.54;27.57;102834.06;4970197;28;20033;-77
2022/03/12 10:09:22;;;;;;;15.32;9.23;;;;;;;8.70;27.51;102838.41;4968868;28;20031;-78
2022/03/12 10:11:49;;;;;;;18.35;9.00;;;;;;;8.82;27.27;102841.44;4976392;28;20027;-79
2022/03/12 10:14:14;;;;;;;17.35;8.57;;;;;;;8.87;27.45;102826.50;4976637;28;20058;-77
2022/03/12 10:16:40;;;;;;;22.70;9.63;;;;;;;8.96;27.50;102825.38;4973838;28;21913;-78
2022/03/12 10:19:06;;;;;;;18.38;8.85;;;;;;;9.09;26.98;102824.72;4972361;28;20516;-78
2022/03/12 10:21:32;;;;;;;16.27;8.35;;;;;;;9.18;27.16;102818.25;4971848;28;20038;-78
2022/03/12 10:23:59;;;;;;;17.25;9.15;;;;;;;9.17;26.85;102827.28;4966974;28;20101;-78
2022/03/12 10:26:25;;;;;;;18.42;9.10;;;;;;;9.20;27.15;102824.22;4961836;28;20031;-78
2022/03/12 10:28:51;;;;;;;17.00;8.65;;;;;;;9.26;27.10;102818.13;4976258;28;20105;-77
2022/03/12 10:31:19;;;;;;;18.23;8.85;;;;;;;9.39;27.16;102812.94;4974734;28;20057;-78
2022/03/12 10:33:46;;;;;;;16.02;8.55;;;;;;;9.52;26.64;102814.91;4971776;28;20043;-78
2022/03/12 10:36:14;;;;;;;23.58;9.32;;;;;;;9.60;26.73;102811.28;4967628;28;20031;-78
2022/03/12 10:38:49;;;;;;;19.00;9.52;;;;;;;9.49;25.38;102809.09;4971482;28;20026;-78
2022/03/12 10:41:15;;;;;;;;;;;;;;;9.27;25.34;102810.94;4967247;28;20034;-78
2022/03/12 10:43:44;;;;;;;16.52;7.65;;;;;;;9.43;26.08;102812.53;4967655;28;19921;-78
2022/03/12 10:46:17;;;;;;;16.50;9.07;;;;;;;9.61;26.22;102813.75;4970640;28;20031;-79
2022/03/12 10:48:47;;;;;;;13.02;7.57;;;;;;;9.66;26.02;102808.66;4978936;28;20026;-78
2022/03/12 10:51:14;;;;;;;16.55;8.15;;;;;;;9.83;26.10;102811.06;4972749;28;20034;-78
2022/03/12 10:53:40;;;;;;;15.85;8.50;;;;;;;9.93;25.82;102800.88;4972708;28;20604;-78
2022/03/12 10:56:07;;;;;;;17.55;8.85;;;;;;;10.07;25.86;102802.63;4970930;28;20034;-78
2022/03/12 10:58:33;;;;;;;16.75;8.32;;;;;;;10.20;25.88;102802.72;4973990;28;20436;-78
2022/03/12 11:01:01;;;;;;;16.67;8.77;;;;;;;10.35;25.97;102808.00;4977941;28;20114;-78
2022/03/12 11:03:28;;;;;;;15.77;8.23;;;;;;;10.49;25.80;102800.88;4972302;28;20483;-78
2022/03/12 11:05:56;;;;;;;17.33;8.45;;;;;;;10.54;25.80;102799.25;4982622;28;20492;-78
2022/03/12 11:08:30;;;;;;;15.98;7.78;;;;;;;10.53;24.85;102800.28;4980248;28;20505;-79
2022/03/12 11:11:14;;;;;;;16.75;8.82;;;;;;;10.59;25.61;102802.19;4972369;28;20516;-78
2022/03/12 11:13:42;;;;;;;16.20;8.45;;;;;;;10.63;25.46;102802.63;4968212;28;20030;-78
2022/03/12 11:16:26;;;;;;;16.40;8.23;;;;;;;10.67;25.36;102792.31;4972150;28;20041;-78
2022/03/12 11:18:51;;;;;;;16.73;9.10;;;;;;;10.85;25.33;102785.38;4969617;28;20048;-78
2022/03/12 11:21:25;;;;;;;17.38;8.50;;;;;;;10.85;25.03;102779.19;4981912;28;20481;-79
2022/03/12 11:23:51;;;;;;;17.88;8.45;;;;;;;10.90;25.18;102782.09;4964380;28;20081;-79
2022/03/12 11:26:16;;;;;;;19.15;8.55;;;;;;;11.05;25.46;102779.25;4969141;28;20027;-79